Time;durP1;ratioP1;P1;durP2;ratioP2;P2;SDS_P1;SDS_P2;PMS_P1;PMS_P2;Temp;Humidity;BMP_temperature;BMP_pressure;BME280_temperature;BME280_humidity;BME280_pressure;Samples;Min_cycle;Max_cycle;Signal;HPM_P1;HPM_P2
2023/10/09 00:00:50;;;;;;;8.23;3.63;;;14.50;99.90;;;;;;5117091;28;20120;-65
2023/10/09 00:03:01;;;;;;;8.13;4.00;;;14.50;99.90;;;;;;5116739;28;20054;-65
2023/10/09 00:08:31;;;;;;;8.50;3.97;;;14.50;99.90;;;;;;5099540;28;20475;-66
2023/10/09 00:11:13;;;;;;;8.98;5.05;;;14.50;99.90;;;;;;5116754;28;20040;-67
2023/10/09 00:13:50;;;;;;;9.23;4.13;;;14.50;99.90;;;;;;5117330;28;20058;-66
2023/10/09 00:16:35;;;;;;;9.52;5.05;;;14.50;99.90;;;;;;5116818;28;20490;-67
2023/10/09 00:19:14;;;;;;;9.82;4.85;;;14.50;99.90;;;;;;5115842;28;20043;-64
2023/10/09 00:21:47;;;;;;;11.23;4.95;;;14.50;99.90;;;;;;5117339;28;20043;-63
2023/10/09 00:24:13;;;;;;;17.17;5.50;;;14.50;99.90;;;;;;5116775;28;20075;-65
2023/10/09 00:26:48;;;;;;;11.38;5.40;;;14.50;99.90;;;;;;5116719;28;20054;-66
2023/10/09 00:29:21;;;;;;;11.23;5.32;;;14.50;99.90;;;;;;5116633;28;20048;-66
2023/10/09 00:32:13;;;;;;;11.85;6.18;;;14.50;99.90;;;;;;5097791;28;20079;-68
2023/10/09 00:34:42;;;;;;;14.32;5.85;;;14.50;99.90;;;;;;5101483;28;20049;-65
2023/10/09 00:37:22;;;;;;;14.45;6.28;;;14.50;99.90;;;;;;5098450;28;20122;-65
2023/10/09 00:39:55;;;;;;;12.75;5.55;;;14.50;99.90;;;;;;5097648;28;20043;-66
2023/10/09 00:42:30;;;;;;;13.50;5.60;;;14.50;99.90;;;;;;5098257;28;20116;-66
2023/10/09 00:45:03;;;;;;;14.93;6.78;;;14.50;99.90;;;;;;5115189;28;20157;-66
2023/10/09 00:47:40;;;;;;;16.33;6.28;;;14.50;99.90;;;;;;5117182;28;20755;-66
2023/10/09 00:50:20;;;;;;;12.38;6.82;;;14.40;99.90;;;;;;5116693;28;20130;-65
2023/10/09 00:53:01;;;;;;;12.60;6.35;;;14.40;99.90;;;;;;5115547;28;20040;-66
2023/10/09 00:55:37;;;;;;;16.25;7.35;;;14.40;99.90;;;;;;5116803;28;20059;-66
2023/10/09 00:58:09;;;;;;;18.88;6.53;;;14.40;99.90;;;;;;5117767;27;20062;-65
2023/10/09 01:11:18;;;;;;;15.55;7.40;;;14.40;99.90;;;;;;5120243;28;20052;-67
2023/10/09 01:16:16;;;;;;;18.02;7.97;;;14.40;99.90;;;;;;5120605;28;20055;-66
2023/10/09 01:18:49;;;;;;;17.17;7.85;;;14.40;99.90;;;;;;5119208;28;20071;-65
2023/10/09 01:21:15;;;;;;;20.90;7.55;;;14.40;99.90;;;;;;5120337;28;20047;-66
2023/10/09 01:24:19;;;;;;;18.60;7.72;;;14.40;99.90;;;;;;5118742;28;20047;-66
2023/10/09 01:26:46;;;;;;;18.73;8.13;;;14.40;99.90;;;;;;5096575;28;20059;-66
2023/10/09 01:29:16;;;;;;;17.70;7.65;;;14.40;99.90;;;;;;5120385;28;20047;-66
2023/10/09 01:31:55;;;;;;;16.35;7.28;;;14.30;99.90;;;;;;5119255;28;20173;-66
2023/10/09 01:37:29;;;;;;;14.30;8.15;;;14.30;99.90;;;;;;5120220;28;20051;-66
2023/10/09 01:39:58;;;;;;;14.30;7.88;;;14.30;99.90;;;;;;5119065;28;20096;-66
2023/10/09 01:44:58;;;;;;;20.85;8.77;;;14.40;99.90;;;;;;5118811;28;20096;-66
2023/10/09 01:47:25;;;;;;;16.40;9.90;;;14.30;99.90;;;;;;5120282;28;20520;-66
2023/10/09 01:49:53;;;;;;;22.55;9.27;;;14.30;99.90;;;;;;5119697;28;20044;-67
2023/10/09 01:52:20;;;;;;;18.38;8.95;;;14.30;99.90;;;;;;5119499;28;20048;-66
2023/10/09 01:54:51;;;;;;;21.50;9.15;;;14.40;99.90;;;;;;5119813;28;20096;-66
2023/10/09 01:57:22;;;;;;;22.33;10.10;;;14.30;99.90;;;;;;5118088;28;20111;-66
2023/10/09 01:59:49;;;;;;;20.77;10.77;;;14.30;99.90;;;;;;5119829;28;20051;-67
2023/10/09 02:02:25;;;;;;;22.92;10.90;;;14.40;99.90;;;;;;5118959;28;20418;-66
2023/10/09 02:05:33;;;;;;;20.38;10.70;;;14.30;99.90;;;;;;5084364;28;20062;-67
2023/10/09 02:07:51;;;;;;;20.73;10.10;;;14.40;99.90;;;;;;5114958;28;20063;-67
2023/10/09 02:13:16;;;;;;;22.08;10.93;;;14.40;99.90;;;;;;5119715;28;20054;-66
2023/10/09 02:23:38;;;;;;;23.42;10.50;;;14.40;99.90;;;;;;5119096;28;20048;-67
2023/10/09 02:26:07;;;;;;;27.00;12.07;;;14.40;99.90;;;;;;5119971;28;20072;-66
2023/10/09 02:28:34;;;;;;;25.95;11.75;;;14.40;99.90;;;;;;5101982;28;20124;-66
2023/10/09 02:31:02;;;;;;;27.52;13.13;;;14.40;99.90;;;;;;5119488;28;20055;-67
2023/10/09 02:33:28;;;;;;;24.88;12.43;;;14.40;99.90;;;;;;5120299;28;20075;-66
2023/10/09 02:35:55;;;;;;;33.38;13.48;;;14.40;99.90;;;;;;5119013;28;20039;-67
2023/10/09 02:38:23;;;;;;;24.58;12.40;;;14.40;99.90;;;;;;5084777;28;20102;-66
2023/10/09 02:41:28;;;;;;;27.65;13.65;;;14.40;99.90;;;;;;5118827;28;20403;-66
2023/10/09 02:43:44;;;;;;;26.60;13.75;;;14.40;99.90;;;;;;5097750;28;20056;-66
2023/10/09 02:46:20;;;;;;;26.73;13.85;;;14.40;99.90;;;;;;5120118;28;20451;-66
2023/10/09 02:48:50;;;;;;;32.63;13.35;;;14.40;99.90;;;;;;5118611;28;20099;-66
2023/10/09 02:53:57;;;;;;;29.55;13.20;;;14.40;99.90;;;;;;5118809;28;20054;-66
2023/10/09 02:56:37;;;;;;;30.75;15.23;;;14.40;99.90;;;;;;5101004;28;20035;-66
2023/10/09 02:59:06;;;;;;;28.75;13.95;;;14.40;99.90;;;;;;5101210;28;20044;-66
2023/10/09 03:01:37;;;;;;;28.85;14.18;;;14.40;99.90;;;;;;5118246;28;20109;-67
2023/10/09 03:04:05;;;;;;;30.25;14.52;;;14.40;99.90;;;;;;5119639;28;20084;-66
2023/10/09 03:06:40;;;;;;;30.15;14.30;;;14.40;99.90;;;;;;5118475;28;20039;-66
2023/10/09 03:09:16;;;;;;;28.45;13.93;;;14.50;99.90;;;;;;5100407;28;20054;-67
2023/10/09 03:11:53;;;;;;;37.33;15.38;;;14.50;99.90;;;;;;5084221;28;20062;-66
2023/10/09 03:14:26;;;;;;;31.00;15.60;;;14.40;99.90;;;;;;5099320;28;20043;-67
2023/10/09 03:16:52;;;;;;;29.02;15.00;;;14.40;99.90;;;;;;5119162;28;20044;-66
2023/10/09 03:19:18;;;;;;;29.13;14.80;;;14.40;99.90;;;;;;5099558;28;20454;-66
2023/10/09 03:21:44;;;;;;;37.22;16.15;;;14.40;99.90;;;;;;5118560;28;20038;-66
2023/10/09 03:24:11;;;;;;;34.25;15.40;;;14.50;99.90;;;;;;5100093;28;20043;-66
2023/10/09 03:26:37;;;;;;;33.08;14.73;;;14.40;99.90;;;;;;5118094;28;20046;-67
2023/10/09 03:29:06;;;;;;;34.45;17.23;;;14.50;99.90;;;;;;5100500;28;20459;-66
2023/10/09 03:31:36;;;;;;;32.58;15.77;;;14.50;99.90;;;;;;5117688;28;20672;-66
2023/10/09 03:34:03;;;;;;;27.13;15.20;;;14.50;99.90;;;;;;5118604;28;20063;-66
2023/10/09 03:36:30;;;;;;;35.13;16.50;;;14.50;99.90;;;;;;5117737;28;20517;-66
2023/10/09 03:38:58;;;;;;;35.22;17.63;;;14.50;99.90;;;;;;5118112;28;20044;-66
2023/10/09 03:41:29;;;;;;;36.67;16.85;;;14.50;99.90;;;;;;5082982;28;20104;-66
2023/10/09 03:43:55;;;;;;;36.45;17.48;;;14.50;99.90;;;;;;5117350;28;20120;-67
2023/10/09 03:46:22;;;;;;;36.30;17.25;;;14.50;99.90;;;;;;5118443;28;20040;-67
2023/10/09 03:48:49;;;;;;;37.88;16.00;;;14.50;99.90;;;;;;5117175;28;20115;-67
2023/10/09 03:51:26;;;;;;;36.17;17.17;;;14.50;99.90;;;;;;5118249;28;20051;-67
2023/10/09 03:53:55;;;;;;;35.75;16.45;;;14.50;99.90;;;;;;5117350;28;20073;-68
2023/10/09 03:56:22;;;;;;;34.20;17.55;;;14.60;99.90;;;;;;5099497;28;20414;-67
2023/10/09 03:58:50;;;;;;;31.98;17.38;;;14.60;99.90;;;;;;5118363;28;20051;-66
2023/10/09 04:01:28;;;;;;;38.65;17.30;;;14.60;99.90;;;;;;5116816;28;20059;-66
2023/10/09 04:04:00;;;;;;;35.55;17.02;;;14.60;99.90;;;;;;5118038;28;20043;-66
2023/10/09 04:06:33;;;;;;;44.50;18.50;;;14.60;99.90;;;;;;5116747;28;20043;-67
2023/10/09 04:11:46;;;;;;;39.92;18.23;;;14.60;99.90;;;;;;5117927;28;20077;-66
2023/10/09 04:14:32;;;;;;;36.35;16.95;;;14.60;99.90;;;;;;5116282;28;20035;-67
2023/10/09 04:17:32;;;;;;;36.15;18.10;;;14.70;99.90;;;;;;5117887;28;20044;-66
2023/10/09 04:22:49;;;;;;;38.33;19.08;;;14.70;99.90;;;;;;5084254;28;20040;-67
2023/10/09 04:25:41;;;;;;;36.53;17.88;;;14.70;99.90;;;;;;5117842;28;20047;-67
2023/10/09 04:28:09;;;;;;;38.20;18.42;;;14.70;99.90;;;;;;5117341;28;20043;-66
2023/10/09 04:30:46;;;;;;;37.47;17.58;;;14.70;99.90;;;;;;5117309;28;20043;-66
2023/10/09 04:33:28;;;;;;;39.97;18.55;;;14.80;99.90;;;;;;5118050;28;20051;-66
2023/10/09 04:36:21;;;;;;;;;;;14.70;99.90;;;;;;5098465;28;20053;-67
2023/10/09 04:41:34;;;;;;;41.67;18.98;;;14.80;99.90;;;;;;5117891;28;20075;-67
2023/10/09 04:44:19;;;;;;;38.85;18.67;;;14.90;99.90;;;;;;5116777;28;20472;-66
2023/10/09 04:47:25;;;;;;;38.78;18.75;;;14.80;99.90;;;;;;5116976;28;20051;-66
2023/10/09 04:52:51;;;;;;;39.77;18.60;;;14.90;99.90;;;;;;5117137;28;20075;-67
2023/10/09 04:58:00;;;;;;;36.50;17.77;;;14.90;99.90;;;;;;5116806;28;20040;-67
2023/10/09 05:02:58;;;;;;;38.80;18.25;;;15.00;99.90;;;;;;5117970;28;20056;-66
2023/10/09 05:08:29;;;;;;;38.47;18.92;;;15.10;99.90;;;;;;5117733;28;20055;-67
2023/10/09 05:16:18;;;;;;;44.38;19.65;;;15.10;99.90;;;;;;5099023;28;20120;-67
2023/10/09 05:19:06;;;;;;;40.22;19.08;;;15.20;99.90;;;;;;5115947;28;20043;-67
2023/10/09 05:32:03;;;;;;;37.17;19.23;;;15.20;99.90;;;;;;5116282;28;20086;-67
2023/10/09 05:37:17;;;;;;;36.17;18.25;;;15.20;99.90;;;;;;5117223;28;20043;-67
2023/10/09 06:04:19;;;;;;;34.50;17.20;;;15.40;99.90;;;;;;5120485;28;20056;-67
2023/10/09 06:07:09;;;;;;;36.50;17.08;;;15.40;99.90;;;;;;5120130;28;20040;-66
2023/10/09 06:09:52;;;;;;;38.25;17.02;;;15.40;99.90;;;;;;5119516;28;20550;-67
2023/10/09 06:17:50;;;;;;;29.98;14.88;;;15.40;99.90;;;;;;5119544;28;20117;-68
2023/10/09 06:23:15;;;;;;;31.30;15.35;;;15.50;99.90;;;;;;5118490;28;20032;-67
2023/10/09 06:25:50;;;;;;;39.13;16.02;;;15.40;99.90;;;;;;5116900;28;20042;-67
2023/10/09 06:28:19;;;;;;;32.00;14.60;;;15.50;99.90;;;;;;5118568;28;20057;-67
2023/10/09 06:30:47;;;;;;;28.75;14.32;;;15.50;99.90;;;;;;5110071;28;20631;-67
2023/10/09 06:33:19;;;;;;;25.08;13.63;;;15.50;99.90;;;;;;5116714;28;20031;-65
2023/10/09 06:35:53;;;;;;;30.65;13.70;;;15.50;99.90;;;;;;5096592;28;20048;-65
2023/10/09 06:38:23;;;;;;;29.35;13.95;;;15.50;99.90;;;;;;5099578;28;20028;-66
2023/10/09 06:43:42;;;;;;;31.17;13.68;;;15.60;99.90;;;;;;5116979;28;20087;-65
2023/10/09 06:46:43;;;;;;;27.02;12.93;;;15.60;99.90;;;;;;5101549;28;20048;-65
2023/10/09 06:49:28;;;;;;;26.98;12.18;;;15.60;99.90;;;;;;5118532;28;20692;-66
2023/10/09 06:51:55;;;;;;;23.40;12.27;;;15.60;99.90;;;;;;5119752;28;20107;-66
2023/10/09 06:54:25;;;;;;;27.02;12.60;;;15.60;99.90;;;;;;5120155;28;20118;-65
2023/10/09 06:57:13;;;;;;;25.98;11.63;;;15.60;99.90;;;;;;5118783;28;20039;-66
2023/10/09 07:00:51;;;;;;;22.55;10.95;;;15.60;99.90;;;;;;5101740;28;20052;-66
2023/10/09 07:02:45;;;;;;;24.20;10.75;;;15.70;99.90;;;;;;5119628;28;20047;-66
2023/10/09 07:05:17;;;;;;;23.52;11.15;;;15.70;99.90;;;;;;5119058;28;20122;-66
2023/10/09 07:07:54;;;;;;;22.50;10.93;;;15.70;99.90;;;;;;5119734;28;20059;-65
2023/10/09 07:10:29;;;;;;;21.65;11.15;;;15.70;99.90;;;;;;5118639;28;20374;-66
2023/10/09 07:12:57;;;;;;;22.15;9.65;;;15.80;99.90;;;;;;5119710;28;20050;-66
2023/10/09 07:18:23;;;;;;;23.38;9.45;;;15.80;99.90;;;;;;5118563;28;20043;-66
2023/10/09 07:21:01;;;;;;;21.30;9.38;;;15.80;99.90;;;;;;5101436;28;20052;-65
2023/10/09 07:23:32;;;;;;;22.63;10.52;;;15.80;99.90;;;;;;5118522;28;20044;-64
2023/10/09 07:26:18;;;;;;;23.70;9.68;;;15.80;99.90;;;;;;5119339;28;20079;-66
2023/10/09 07:28:48;;;;;;;19.35;9.38;;;15.80;99.90;;;;;;5119404;28;20103;-66
2023/10/09 07:31:39;;;;;;;18.30;8.52;;;15.90;99.90;;;;;;5117360;28;20067;-66
2023/10/09 07:34:30;;;;;;;20.83;8.23;;;15.90;99.90;;;;;;5119042;28;20377;-65
2023/10/09 07:36:56;;;;;;;21.02;7.95;;;15.90;99.90;;;;;;5118632;28;20567;-65
2023/10/09 07:39:22;;;;;;;19.50;7.72;;;15.90;99.90;;;;;;5118384;28;20076;-65
2023/10/09 07:42:01;;;;;;;17.05;7.53;;;15.90;99.90;;;;;;5118686;28;20069;-66
2023/10/09 07:44:36;;;;;;;19.77;7.28;;;15.90;99.90;;;;;;5117078;28;20095;-68
2023/10/09 07:47:22;;;;;;;14.90;7.90;;;16.00;99.90;;;;;;5118616;28;20055;-68
2023/10/09 07:49:51;;;;;;;17.33;7.15;;;16.00;99.90;;;;;;5103132;28;20081;-67
2023/10/09 07:52:26;;;;;;;14.80;7.90;;;16.00;99.90;;;;;;5117762;28;20047;-68
2023/10/09 07:55:01;;;;;;;24.00;7.72;;;16.00;99.90;;;;;;5118814;28;20076;-67
2023/10/09 07:57:38;;;;;;;20.50;8.43;;;16.00;99.90;;;;;;5117421;28;20048;-66
2023/10/09 08:00:36;;;;;;;19.60;8.10;;;16.10;99.90;;;;;;5118061;28;20062;-66
2023/10/09 08:03:00;;;;;;;13.02;7.68;;;16.10;99.90;;;;;;5101675;28;20051;-67
2023/10/09 08:05:33;;;;;;;17.15;7.32;;;16.10;99.90;;;;;;5117031;28;20112;-68
2023/10/09 08:13:56;;;;;;;17.45;7.30;;;16.10;99.90;;;;;;5098957;28;19919;-67
2023/10/09 08:16:36;;;;;;;14.27;7.53;;;16.10;99.90;;;;;;5118161;28;20051;-66
2023/10/09 08:19:32;;;;;;;15.10;7.10;;;16.10;99.90;;;;;;5098719;28;20103;-67
2023/10/09 08:24:40;;;;;;;15.52;7.68;;;16.20;99.90;;;;;;5117973;28;20043;-67
2023/10/09 08:30:12;;;;;;;18.92;6.95;;;16.20;99.90;;;;;;5099818;28;20091;-67
2023/10/09 08:32:42;;;;;;;17.35;6.97;;;16.30;99.90;;;;;;5117687;28;20047;-67
2023/10/09 08:35:51;;;;;;;14.05;6.68;;;16.30;99.90;;;;;;5117269;28;20080;-67
2023/10/09 08:38:43;;;;;;;19.27;7.53;;;16.30;99.90;;;;;;5106755;28;20047;-67
2023/10/09 08:40:54;;;;;;;17.35;7.55;;;16.30;99.90;;;;;;5114231;28;20099;-67
2023/10/09 08:43:22;;;;;;;20.15;7.25;;;16.30;99.90;;;;;;5098988;28;20059;-66
2023/10/09 08:46:02;;;;;;;23.15;7.82;;;16.30;99.90;;;;;;5118144;28;20051;-68
2023/10/09 08:48:30;;;;;;;15.00;7.07;;;16.30;99.90;;;;;;5116922;28;20096;-67
2023/10/09 08:50:56;;;;;;;15.43;6.95;;;16.40;99.90;;;;;;5117811;28;20081;-67
2023/10/09 08:53:24;;;;;;;17.95;6.97;;;16.40;99.90;;;;;;5098562;28;20055;-67
2023/10/09 08:55:51;;;;;;;19.60;7.38;;;16.40;99.90;;;;;;5118262;28;20050;-67
2023/10/09 08:58:20;;;;;;;20.92;7.07;;;16.40;99.90;;;;;;5117462;28;20052;-67
2023/10/09 09:00:47;;;;;;;15.90;7.20;;;16.40;99.90;;;;;;5117064;28;20060;-67
2023/10/09 09:03:17;;;;;;;17.60;6.53;;;16.40;99.90;;;;;;5118124;28;20040;-66
2023/10/09 09:05:52;;;;;;;19.33;7.65;;;16.40;99.90;;;;;;5117153;28;20039;-67
2023/10/09 09:08:25;;;;;;;14.82;6.78;;;16.50;99.90;;;;;;5117829;28;20047;-67
2023/10/09 09:11:17;;;;;;;16.70;6.65;;;16.50;99.90;;;;;;5116722;28;20054;-67
2023/10/09 09:14:04;;;;;;;13.55;7.45;;;16.50;99.90;;;;;;5116847;28;20040;-67
2023/10/09 09:16:31;;;;;;;19.95;6.93;;;16.50;99.90;;;;;;5117945;28;20051;-67
2023/10/09 09:21:41;;;;;;;17.83;7.85;;;16.50;99.90;;;;;;5121331;28;20482;-67
2023/10/09 09:24:30;;;;;;;15.63;7.78;;;16.60;99.90;;;;;;5121408;28;20193;-67
2023/10/09 09:27:09;;;;;;;19.10;7.65;;;16.60;99.90;;;;;;5119906;28;20048;-67
2023/10/09 09:29:38;;;;;;;17.05;7.35;;;16.60;99.90;;;;;;5102921;28;20498;-65
2023/10/09 09:32:20;;;;;;;17.15;7.47;;;16.60;99.90;;;;;;5120818;28;20044;-66
2023/10/09 09:35:00;;;;;;;24.23;7.18;;;16.60;99.90;;;;;;5088064;28;20105;-65
2023/10/09 09:38:17;;;;;;;14.20;7.03;;;16.60;99.90;;;;;;5103023;28;20065;-63
2023/10/09 09:40:29;;;;;;;20.85;7.43;;;16.60;99.90;;;;;;5116683;28;20139;-71
2023/10/09 09:43:46;;;;;;;18.98;8.02;;;16.60;99.90;;;;;;5102748;28;20047;-67
2023/10/09 09:45:46;;;;;;;17.35;6.93;;;16.60;99.90;;;;;;5114816;28;20100;-68
2023/10/09 09:48:15;;;;;;;15.98;6.80;;;16.60;99.90;;;;;;5101736;28;20419;-68
2023/10/09 09:50:46;;;;;;;15.23;6.90;;;16.60;99.90;;;;;;5102980;28;20054;-69
2023/10/09 09:53:23;;;;;;;17.60;7.38;;;16.60;99.90;;;;;;5119709;28;20071;-68
2023/10/09 09:55:58;;;;;;;17.23;6.88;;;16.60;99.90;;;;;;5102204;28;20446;-68
2023/10/09 09:58:32;;;;;;;15.38;6.95;;;16.60;99.90;;;;;;5119029;28;20107;-67
2023/10/09 10:01:16;;;;;;;17.63;7.50;;;16.60;99.90;;;;;;5118946;28;20067;-67
2023/10/09 10:03:47;;;;;;;18.30;7.68;;;16.70;99.90;;;;;;5138609;27;20062;-68
2023/10/09 10:06:18;;;;;;;14.67;6.83;;;16.70;99.90;;;;;;5114483;27;20050;-68
2023/10/09 10:08:50;;;;;;;13.85;7.72;;;16.70;99.90;;;;;;5082487;28;20143;-68
2023/10/09 10:11:45;;;;;;;16.40;7.10;;;16.70;99.90;;;;;;5119349;27;20082;-67
2023/10/09 10:14:31;;;;;;;14.50;6.57;;;16.80;99.90;;;;;;5118008;28;20042;-66
2023/10/09 10:17:01;;;;;;;26.08;8.20;;;16.80;99.90;;;;;;5115947;27;20100;-68
2023/10/09 10:20:14;;;;;;;21.65;7.63;;;16.80;99.90;;;;;;5115425;28;20068;-68
2023/10/09 10:22:50;;;;;;;18.77;6.88;;;16.90;99.90;;;;;;5098205;28;20123;-68
2023/10/09 10:25:32;;;;;;;17.88;8.15;;;17.00;99.90;;;;;;5119112;28;20047;-65
2023/10/09 10:28:28;;;;;;;14.70;6.85;;;17.00;99.90;;;;;;5119037;27;20114;-67
2023/10/09 10:31:00;;;;;;;19.15;7.75;;;17.10;99.90;;;;;;5117871;28;20035;-67
2023/10/09 10:33:47;;;;;;;18.67;7.97;;;17.10;99.90;;;;;;5136412;27;20043;-68
2023/10/09 10:36:22;;;;;;;17.80;7.80;;;17.10;99.90;;;;;;5119914;27;20066;-67
2023/10/09 10:39:10;;;;;;;22.73;7.40;;;17.20;99.90;;;;;;5120432;27;20054;-68
2023/10/09 10:41:48;;;;;;;20.67;8.23;;;17.20;99.90;;;;;;5127086;27;20047;-69
2023/10/09 10:46:58;;;;;;;25.90;8.38;;;17.30;99.90;;;;;;5113111;27;20047;-67
2023/10/09 10:49:26;;;;;;;17.85;8.20;;;17.30;99.90;;;;;;5117612;28;20039;-68
2023/10/09 10:52:01;;;;;;;20.08;7.47;;;17.30;99.90;;;;;;5115456;27;20047;-68
2023/10/09 10:57:03;;;;;;;19.30;7.35;;;17.40;99.90;;;;;;5117380;28;20106;-64
2023/10/09 10:59:41;;;;;;;19.33;7.05;;;17.40;99.90;;;;;;5099821;28;20055;-66
2023/10/09 11:04:39;;;;;;;14.52;6.45;;;17.40;99.90;;;;;;5101010;28;20101;-68
2023/10/09 11:07:09;;;;;;;15.15;6.30;;;17.40;99.90;;;;;;5100642;28;20067;-67
2023/10/09 11:12:39;;;;;;;17.40;6.40;;;17.40;99.90;;;;;;5118806;28;20062;-68
2023/10/09 11:17:58;;;;;;;14.95;7.28;;;17.50;99.90;;;;;;5117689;28;20043;-69
2023/10/09 11:20:32;;;;;;;16.73;6.47;;;17.50;99.90;;;;;;5118595;27;20043;-69
2023/10/09 11:25:50;;;;;;;10.95;6.78;;;17.60;99.90;;;;;;5118551;28;20051;-68
2023/10/09 11:28:42;;;;;;;15.82;5.80;;;17.50;99.90;;;;;;5100052;28;20816;-68
2023/10/09 11:31:16;;;;;;;16.17;6.32;;;17.60;99.90;;;;;;5117012;28;20118;-68
2023/10/09 11:33:48;;;;;;;16.42;5.97;;;17.60;99.90;;;;;;5118372;28;20067;-67
2023/10/09 11:36:15;;;;;;;16.83;5.93;;;17.60;99.90;;;;;;5116831;27;20047;-65
2023/10/09 11:38:45;;;;;;;18.13;5.97;;;17.70;99.90;;;;;;5118444;28;20073;-70
2023/10/09 11:41:18;;;;;;;18.30;6.40;;;17.70;99.90;;;;;;5118137;28;20054;-73
2023/10/09 11:43:51;;;;;;;16.33;5.90;;;17.70;99.90;;;;;;5118289;28;20134;-70
2023/10/09 11:46:36;;;;;;;14.27;6.07;;;17.80;99.90;;;;;;5084223;28;20490;-68
2023/10/09 11:52:03;;;;;;;19.02;5.93;;;17.90;99.90;;;;;;5118701;28;20043;-68
2023/10/09 11:54:31;;;;;;;15.82;6.20;;;17.90;99.90;;;;;;5118938;28;20216;-65
2023/10/09 11:57:00;;;;;;;12.55;5.90;;;18.00;99.90;;;;;;5117725;28;20113;-68
2023/10/09 11:59:27;;;;;;;18.17;6.30;;;18.00;99.90;;;;;;5118718;28;20064;-68
2023/10/09 12:01:58;;;;;;;16.67;5.63;;;18.00;99.90;;;;;;5117861;28;20133;-68
2023/10/09 12:04:30;;;;;;;14.60;4.90;;;18.00;99.90;;;;;;5118752;28;20044;-68
2023/10/09 12:07:10;;;;;;;12.20;5.03;;;18.00;99.90;;;;;;5099947;28;20583;-68
2023/10/09 12:09:39;;;;;;;16.52;5.10;;;18.00;99.90;;;;;;5117165;28;20096;-68
2023/10/09 12:12:07;;;;;;;16.05;5.30;;;18.00;99.90;;;;;;5118438;28;20805;-69
2023/10/09 12:14:33;;;;;;;11.95;4.88;;;18.00;99.90;;;;;;5098643;28;20056;-68
2023/10/09 12:17:05;;;;;;;14.65;5.03;;;18.00;99.90;;;;;;5118706;28;20047;-68
2023/10/09 12:19:36;;;;;;;11.60;4.40;;;18.00;99.90;;;;;;5117620;28;20035;-68
2023/10/09 12:22:05;;;;;;;9.52;4.32;;;18.00;99.90;;;;;;5117577;28;20071;-68
2023/10/09 12:24:34;;;;;;;14.68;5.07;;;18.00;99.90;;;;;;5118222;28;20046;-67
2023/10/09 12:27:00;;;;;;;12.32;4.63;;;18.10;99.90;;;;;;5117191;28;20098;-67
2023/10/09 12:29:30;;;;;;;8.40;3.75;;;18.10;99.90;;;;;;5118007;28;20117;-67
2023/10/09 12:31:58;;;;;;;11.57;4.13;;;18.00;99.90;;;;;;5117217;28;20040;-68
2023/10/09 12:34:26;;;;;;;8.35;3.65;;;18.00;99.90;;;;;;5099067;28;20031;-67
2023/10/09 12:37:02;;;;;;;11.00;4.30;;;18.00;99.90;;;;;;5117855;28;20043;-68
2023/10/09 12:39:33;;;;;;;5.38;2.95;;;18.00;99.90;;;;;;5116815;28;20051;-68
2023/10/09 12:42:08;;;;;;;9.07;3.33;;;18.00;99.90;;;;;;5117890;28;20035;-65
2023/10/09 12:44:38;;;;;;;9.15;3.20;;;18.00;99.90;;;;;;5116369;28;20032;-67
2023/10/09 12:47:11;;;;;;;8.00;3.67;;;18.10;99.90;;;;;;5117879;28;20054;-64
2023/10/09 12:49:40;;;;;;;12.57;3.70;;;18.10;99.90;;;;;;5117270;28;20052;-67
2023/10/09 12:52:15;;;;;;;10.50;3.20;;;18.10;99.90;;;;;;5082983;28;20047;-68
2023/10/09 12:54:46;;;;;;;9.32;3.88;;;18.20;99.90;;;;;;5124435;28;20112;-68
2023/10/09 12:57:13;;;;;;;9.73;3.83;;;18.20;99.90;;;;;;5123512;28;20095;-65
2023/10/09 12:59:45;;;;;;;6.38;3.55;;;18.40;99.90;;;;;;5124386;28;20060;-65
2023/10/09 13:02:13;;;;;;;9.02;3.25;;;18.30;99.90;;;;;;5105682;28;20047;-68
2023/10/09 13:04:42;;;;;;;6.95;3.13;;;18.40;99.90;;;;;;5123756;28;20099;-68
2023/10/09 13:07:08;;;;;;;15.10;3.97;;;18.40;99.90;;;;;;5124464;28;20048;-68
2023/10/09 13:09:42;;;;;;;6.45;3.33;;;18.40;99.90;;;;;;5123263;28;20099;-68
2023/10/09 13:12:17;;;;;;;7.70;3.30;;;18.50;99.90;;;;;;5124372;28;20051;-68
2023/10/09 13:14:43;;;;;;;8.05;3.70;;;18.50;99.90;;;;;;5122843;28;20047;-67
2023/10/09 13:17:09;;;;;;;8.18;3.50;;;18.60;99.90;;;;;;5105507;28;20043;-68
2023/10/09 13:19:35;;;;;;;14.02;3.25;;;18.70;99.90;;;;;;5123951;28;20526;-68
2023/10/09 13:22:03;;;;;;;8.85;3.85;;;18.60;99.90;;;;;;5123625;28;20047;-64
2023/10/09 13:24:30;;;;;;;5.53;2.88;;;18.70;99.90;;;;;;5106166;28;20059;-68
2023/10/09 13:26:58;;;;;;;9.32;3.22;;;18.70;99.90;;;;;;5123144;28;20086;-68
2023/10/09 13:29:24;;;;;;;7.38;3.38;;;18.70;99.90;;;;;;5124303;28;20047;-68
2023/10/09 13:31:57;;;;;;;8.18;3.22;;;18.70;99.90;;;;;;5123077;28;20079;-69
2023/10/09 13:34:29;;;;;;;8.90;3.28;;;18.70;99.90;;;;;;5106180;28;20058;-68
2023/10/09 13:36:56;;;;;;;5.68;2.50;;;18.70;99.90;;;;;;5106011;28;20052;-65
2023/10/09 13:41:49;;;;;;;6.80;3.20;;;18.70;99.90;;;;;;5124567;28;20522;-67
2023/10/09 13:44:15;;;;;;;6.72;2.50;;;18.70;99.90;;;;;;5123137;28;20048;-67
2023/10/09 13:46:41;;;;;;;6.75;2.83;;;18.60;99.90;;;;;;5123623;28;20127;-68
2023/10/09 13:49:12;;;;;;;5.93;2.67;;;18.70;99.90;;;;;;5122988;28;20071;-66
2023/10/09 13:51:47;;;;;;;6.50;2.55;;;18.70;99.90;;;;;;5123621;28;20122;-67
2023/10/09 13:54:21;;;;;;;5.80;2.78;;;18.70;99.90;;;;;;5124212;28;20461;-65
2023/10/09 13:56:52;;;;;;;9.20;2.88;;;18.80;99.90;;;;;;5120794;28;20127;-67
2023/10/09 13:59:25;;;;;;;6.80;3.38;;;18.80;99.90;;;;;;5104956;28;20039;-65
2023/10/09 14:01:59;;;;;;;6.25;2.75;;;18.70;99.90;;;;;;5122256;28;20047;-67
2023/10/09 14:04:26;;;;;;;10.23;3.03;;;18.70;99.90;;;;;;5118917;28;20559;-66
2023/10/09 14:06:59;;;;;;;4.20;2.58;;;18.70;99.90;;;;;;5120250;28;20580;-68
2023/10/09 14:09:31;;;;;;;7.80;2.75;;;18.70;99.90;;;;;;5119121;28;20055;-69
2023/10/09 14:12:08;;;;;;;8.23;2.80;;;18.70;99.90;;;;;;5120097;28;20110;-68
2023/10/09 14:14:37;;;;;;;6.90;2.30;;;18.80;99.90;;;;;;5099840;28;20045;-69
2023/10/09 14:17:11;;;;;;;8.45;2.40;;;18.80;99.90;;;;;;5119483;28;20139;-73
2023/10/09 14:19:38;;;;;;;7.03;2.65;;;18.80;99.90;;;;;;5101378;28;20479;-67
2023/10/09 14:22:05;;;;;;;6.63;2.53;;;18.80;99.90;;;;;;5118804;28;20047;-66
2023/10/09 14:24:34;;;;;;;6.25;2.42;;;18.80;99.90;;;;;;5119681;28;20051;-66
2023/10/09 14:27:04;;;;;;;6.53;2.58;;;18.80;99.90;;;;;;5118484;28;20283;-67
2023/10/09 14:29:31;;;;;;;10.18;2.38;;;18.80;99.90;;;;;;5119318;28;20122;-66
2023/10/09 14:32:00;;;;;;;4.85;2.40;;;18.80;99.90;;;;;;5100007;28;20547;-66
2023/10/09 14:34:35;;;;;;;5.95;1.88;;;18.80;99.90;;;;;;5119364;28;20036;-68
2023/10/09 14:37:01;;;;;;;7.75;2.38;;;18.80;99.90;;;;;;5101235;28;20126;-67
2023/10/09 14:39:28;;;;;;;8.02;2.40;;;18.80;99.90;;;;;;5099669;28;20051;-66
2023/10/09 14:41:57;;;;;;;8.25;1.98;;;18.70;99.90;;;;;;5099198;28;20050;-68
2023/10/09 14:44:27;;;;;;;6.13;2.03;;;18.80;99.90;;;;;;5117188;28;20051;-68
2023/10/09 14:46:55;;;;;;;2.70;1.73;;;18.70;99.90;;;;;;5084136;28;20051;-68
2023/10/09 14:49:21;;;;;;;4.15;2.25;;;18.70;99.90;;;;;;5100119;28;20070;-67
2023/10/09 14:51:47;;;;;;;7.90;2.58;;;18.70;99.90;;;;;;5118585;28;20044;-68
2023/10/09 14:54:17;;;;;;;7.18;2.42;;;18.70;99.90;;;;;;5100667;28;20055;-65
2023/10/09 14:56:45;;;;;;;6.38;2.13;;;18.70;99.90;;;;;;5100158;28;20043;-65
2023/10/09 14:59:11;;;;;;;11.88;2.17;;;18.60;99.90;;;;;;5118503;28;20497;-65
2023/10/09 15:01:37;;;;;;;7.70;2.30;;;18.60;99.90;;;;;;5117716;28;20550;-66
2023/10/09 15:04:03;;;;;;;7.57;2.42;;;18.60;99.90;;;;;;5119037;28;20078;-67
2023/10/09 15:06:33;;;;;;;5.82;2.10;;;18.50;99.90;;;;;;5118084;28;20043;-65
2023/10/09 15:09:09;;;;;;;5.72;2.17;;;18.60;99.90;;;;;;5099687;28;20044;-65
2023/10/09 15:11:38;;;;;;;4.47;2.10;;;18.60;99.90;;;;;;5118449;28;20059;-65
2023/10/09 15:14:06;;;;;;;3.78;2.38;;;18.60;99.90;;;;;;5116825;28;20062;-65
2023/10/09 15:16:32;;;;;;;4.93;2.03;;;18.60;99.90;;;;;;5098896;28;20079;-65
2023/10/09 15:18:57;;;;;;;6.82;2.38;;;18.60;99.90;;;;;;5117343;28;20054;-62
2023/10/09 15:21:26;;;;;;;10.00;2.97;;;18.50;99.90;;;;;;5118326;28;20074;-64
2023/10/09 15:23:56;;;;;;;7.88;2.30;;;18.50;99.90;;;;;;5118068;28;20039;-64
2023/10/09 15:26:24;;;;;;;7.82;2.58;;;18.40;99.90;;;;;;5117598;28;20040;-65
2023/10/09 15:28:50;;;;;;;8.05;2.58;;;18.40;99.90;;;;;;5117770;28;20062;-64
2023/10/09 15:31:18;;;;;;;7.18;2.13;;;18.40;99.90;;;;;;5117133;28;20954;-65
2023/10/09 15:33:47;;;;;;;9.00;2.85;;;18.30;99.90;;;;;;5118079;28;20130;-65